»·PEaware :: N32314 KSMX-KBFL

N32314 :: KSMX-KBFL

FLIGHT INFORMATION

Flight Status: Arrived
Operator: Privately registered:
United States
More flights under this callsign
Pilot: John O. (31453)
Aircraft: CESSNA 172 SKYHAWK
(C172)
More flights by this aircraft type
Origin: KSMX Santa Maria Pub/Capt Hancock
United States
Destination: KBFL Meadows
United States
More flights between these airports :: More routes between these airports
Route: +DIRECT
File this flight plan on PilotEdge
Remarks:
Altitude:
(Current/Filed)
4,500ft
Speed:
(Current/Filed)
110kts
Departed: 18-Sep-20 01:05 PM
Arrived: 18-Sep-20 01:55 PM
Distance/Time
Traveled:
76nm/0:50
Distance/Time
To Go:
Arrived

Flight Plot

Page will automatically refresh every two minutes.


Map Options




Map Legend


Flown Route
Filed Route
Departure Airport
Arrival Airport
Navaid (VOR, NDB)
Fix

Horizontal Profiles

Position Reports

Time Latitude Longitude Heading Altitude Ground
Speed
18-Sep-20 13:00 34.897516 -120.448919 175 252ft 14kts
18-Sep-20 13:00 34.893888 -120.445153 177 263ft 15kts
18-Sep-20 13:01 34.893303 -120.445177 184 264ft 0kts
18-Sep-20 13:02 34.893303 -120.445177 184 264ft 0kts
18-Sep-20 13:03 34.893065 -120.446227 320 264ft 23kts
18-Sep-20 13:04 34.907838 -120.464161 315 655ft 90kts
18-Sep-20 13:05 34.925151 -120.452018 68 1305ft 97kts
18-Sep-20 13:06 34.922300 -120.420380 109 1879ft 102kts
18-Sep-20 13:07 34.927569 -120.387393 65 2383ft 101kts
18-Sep-20 13:08 34.939330 -120.356987 63 2883ft 96kts
18-Sep-20 13:09 34.950415 -120.328546 63 3377ft 89kts
18-Sep-20 13:10 34.960443 -120.302686 61 3886ft 79kts
18-Sep-20 13:11 34.968802 -120.281123 61 4304ft 58kts
18-Sep-20 13:12 34.977087 -120.260019 62 4498ft 66kts
18-Sep-20 13:13 34.987019 -120.233666 63 4462ft 99kts
18-Sep-20 13:14 34.999544 -120.201481 63 4466ft 109kts
18-Sep-20 13:15 35.012516 -120.167963 63 4467ft 109kts
18-Sep-20 13:16 35.024854 -120.135929 62 4663ft 95kts
18-Sep-20 13:17 35.035280 -120.108877 63 5054ft 87kts
18-Sep-20 13:18 35.046275 -120.080260 62 5412ft 99kts
18-Sep-20 13:19 35.059342 -120.046269 63 5482ft 117kts
18-Sep-20 13:20 35.073657 -120.008945 63 5474ft 122kts
18-Sep-20 13:21 35.087882 -119.971899 63 5476ft 119kts
18-Sep-20 13:22 35.102042 -119.934942 63 5475ft 120kts
18-Sep-20 13:23 35.116190 -119.897986 62 5478ft 120kts
18-Sep-20 13:24 35.130349 -119.860932 62 5484ft 122kts
18-Sep-20 13:25 35.144777 -119.823135 62 5475ft 122kts
18-Sep-20 13:26 35.159023 -119.785769 62 5476ft 121kts
18-Sep-20 13:27 35.173313 -119.748269 62 5476ft 121kts
18-Sep-20 13:28 35.187488 -119.711003 62 5477ft 121kts
18-Sep-20 13:29 35.201647 -119.673725 62 5480ft 121kts
18-Sep-20 13:30 35.215996 -119.635936 63 5476ft 122kts
18-Sep-20 13:31 35.230319 -119.598153 63 5474ft 122kts
18-Sep-20 13:32 35.244637 -119.560356 63 5474ft 122kts
18-Sep-20 13:33 35.259024 -119.522296 63 5472ft 123kts
18-Sep-20 13:34 35.273421 -119.484179 63 5472ft 123kts
18-Sep-20 13:35 35.287684 -119.445847 65 5476ft 124kts
18-Sep-20 13:36 35.301414 -119.406570 65 5448ft 126kts
18-Sep-20 13:37 35.315267 -119.367008 65 5409ft 126kts
18-Sep-20 13:38 35.329507 -119.325975 65 4810ft 119kts
18-Sep-20 13:39 35.340997 -119.290965 65 4301ft 108kts
18-Sep-20 13:40 35.351573 -119.258325 65 4006ft 101kts
18-Sep-20 13:41 35.362601 -119.225215 65 3705ft 106kts
18-Sep-20 13:42 35.374049 -119.191968 65 3477ft 101kts
18-Sep-20 13:43 35.391846 -119.177509 331 3471ft 91kts
18-Sep-20 13:44 35.394299 -119.206357 255 3468ft 93kts
18-Sep-20 13:45 35.393976 -119.235479 323 3408ft 92kts
18-Sep-20 13:46 35.414637 -119.222599 48 3400ft 95kts
18-Sep-20 13:47 35.425221 -119.188432 74 2985ft 112kts
18-Sep-20 13:48 35.428042 -119.150656 86 2250ft 110kts
18-Sep-20 13:49 35.433274 -119.114013 83 1413ft 107kts
18-Sep-20 13:50 35.435074 -119.081684 122 1353ft 91kts
18-Sep-20 13:51 35.415171 -119.063799 146 1423ft 85kts
18-Sep-20 13:52 35.413955 -119.041058 24 1151ft 91kts
18-Sep-20 13:53 35.431329 -119.053183 316 490ft 54kts
18-Sep-20 13:54 35.435878 -119.056391 134 493ft 17kts
18-Sep-20 13:55 35.436779 -119.054805 63 495ft 0kts
18-Sep-20 13:56 35.436779 -119.054805 63 495ft 0kts
18-Sep-20 13:57 35.436779 -119.054805 63 495ft 0kts
18-Sep-20 13:58 35.436779 -119.054805 63 495ft 0kts
18-Sep-20 13:59 35.436779 -119.054805 63 495ft 0kts
18-Sep-20 14:00 35.436779 -119.054805 63 495ft 0kts
18-Sep-20 14:01 35.436779 -119.054805 63 495ft 0kts
18-Sep-20 14:02 35.436779 -119.054805 63 495ft 0kts
18-Sep-20 14:03 35.436779 -119.054805 63 495ft 0kts
18-Sep-20 14:04 35.436779 -119.054805 63 495ft 0kts
18-Sep-20 14:05 35.436779 -119.054805 63 495ft 0kts
18-Sep-20 14:06 35.436779 -119.054805 63 495ft 0kts
18-Sep-20 14:07 35.436779 -119.054805 63 495ft 0kts
18-Sep-20 14:08 35.436779 -119.054805 63 495ft 0kts

Navigation Log

Ident Type
Flight plan parsing failed, navigation log unavailable